sensor_id;sensor_type;location;lat;lon;timestamp;P1;durP1;ratioP1;P2;durP2;ratioP2
73733;SDS011;62039;50.000;9.064;2023-03-01T00:00:05;7.77;;;6.10;;
73733;SDS011;62039;50.000;9.064;2023-03-01T00:02:32;7.33;;;5.43;;
73733;SDS011;62039;50.000;9.064;2023-03-01T00:05:01;9.13;;;7.60;;
73733;SDS011;62039;50.000;9.064;2023-03-01T00:07:27;10.67;;;7.83;;
73733;SDS011;62039;50.000;9.064;2023-03-01T00:09:54;8.03;;;5.83;;
73733;SDS011;62039;50.000;9.064;2023-03-01T00:12:21;6.43;;;5.13;;
73733;SDS011;62039;50.000;9.064;2023-03-01T00:14:47;7.53;;;6.30;;
73733;SDS011;62039;50.000;9.064;2023-03-01T00:17:14;7.67;;;6.10;;
73733;SDS011;62039;50.000;9.064;2023-03-01T00:19:40;7.30;;;6.13;;
73733;SDS011;62039;50.000;9.064;2023-03-01T00:22:08;7.27;;;5.93;;
73733;SDS011;62039;50.000;9.064;2023-03-01T00:24:35;7.27;;;5.30;;
73733;SDS011;62039;50.000;9.064;2023-03-01T00:27:01;6.47;;;4.93;;
73733;SDS011;62039;50.000;9.064;2023-03-01T00:29:28;7.30;;;5.63;;
73733;SDS011;62039;50.000;9.064;2023-03-01T00:31:54;6.77;;;5.47;;
73733;SDS011;62039;50.000;9.064;2023-03-01T00:34:21;7.30;;;6.00;;
73733;SDS011;62039;50.000;9.064;2023-03-01T00:36:48;5.73;;;5.03;;
73733;SDS011;62039;50.000;9.064;2023-03-01T00:39:15;5.63;;;4.87;;
73733;SDS011;62039;50.000;9.064;2023-03-01T00:41:42;7.00;;;5.40;;
73733;SDS011;62039;50.000;9.064;2023-03-01T00:44:09;5.90;;;4.70;;
73733;SDS011;62039;50.000;9.064;2023-03-01T00:46:36;5.50;;;4.63;;
73733;SDS011;62039;50.000;9.064;2023-03-01T00:49:02;6.03;;;4.80;;
73733;SDS011;62039;50.000;9.064;2023-03-01T00:51:29;5.63;;;4.70;;
73733;SDS011;62039;50.000;9.064;2023-03-01T00:53:57;5.93;;;5.17;;
73733;SDS011;62039;50.000;9.064;2023-03-01T00:56:26;6.60;;;5.17;;
73733;SDS011;62039;50.000;9.064;2023-03-01T00:58:54;6.60;;;5.30;;
73733;SDS011;62039;50.000;9.064;2023-03-01T01:01:21;7.10;;;5.83;;
73733;SDS011;62039;50.000;9.064;2023-03-01T01:03:49;7.20;;;5.70;;
73733;SDS011;62039;50.000;9.064;2023-03-01T01:06:18;8.17;;;6.20;;
73733;SDS011;62039;50.000;9.064;2023-03-01T01:08:47;6.47;;;5.00;;
73733;SDS011;62039;50.000;9.064;2023-03-01T01:11:15;6.17;;;5.33;;
73733;SDS011;62039;50.000;9.064;2023-03-01T01:13:44;7.63;;;5.40;;
73733;SDS011;62039;50.000;9.064;2023-03-01T01:16:12;6.67;;;5.50;;
73733;SDS011;62039;50.000;9.064;2023-03-01T01:18:39;7.03;;;5.77;;
73733;SDS011;62039;50.000;9.064;2023-03-01T01:21:06;6.67;;;5.20;;
73733;SDS011;62039;50.000;9.064;2023-03-01T01:23:34;7.30;;;5.93;;
73733;SDS011;62039;50.000;9.064;2023-03-01T01:26:05;6.30;;;5.37;;
73733;SDS011;62039;50.000;9.064;2023-03-01T01:28:32;6.57;;;5.47;;
73733;SDS011;62039;50.000;9.064;2023-03-01T01:31:00;8.13;;;6.00;;
73733;SDS011;62039;50.000;9.064;2023-03-01T01:33:27;6.77;;;5.67;;
73733;SDS011;62039;50.000;9.064;2023-03-01T01:35:54;7.83;;;5.77;;
73733;SDS011;62039;50.000;9.064;2023-03-01T01:38:20;8.13;;;5.80;;
73733;SDS011;62039;50.000;9.064;2023-03-01T01:40:47;7.67;;;6.10;;
73733;SDS011;62039;50.000;9.064;2023-03-01T01:43:16;7.40;;;5.83;;
73733;SDS011;62039;50.000;9.064;2023-03-01T01:45:45;7.90;;;5.87;;
73733;SDS011;62039;50.000;9.064;2023-03-01T01:48:14;6.83;;;5.90;;
73733;SDS011;62039;50.000;9.064;2023-03-01T01:50:46;7.73;;;6.20;;
73733;SDS011;62039;50.000;9.064;2023-03-01T01:53:19;7.63;;;5.67;;
73733;SDS011;62039;50.000;9.064;2023-03-01T01:55:47;10.03;;;6.30;;
73733;SDS011;62039;50.000;9.064;2023-03-01T01:58:18;6.20;;;5.43;;
73733;SDS011;62039;50.000;9.064;2023-03-01T02:00:47;7.57;;;5.70;;
73733;SDS011;62039;50.000;9.064;2023-03-01T02:03:17;6.30;;;5.67;;
73733;SDS011;62039;50.000;9.064;2023-03-01T02:05:50;8.03;;;5.53;;
73733;SDS011;62039;50.000;9.064;2023-03-01T02:08:21;6.57;;;5.30;;
73733;SDS011;62039;50.000;9.064;2023-03-01T02:10:51;6.70;;;5.80;;
73733;SDS011;62039;50.000;9.064;2023-03-01T02:13:18;6.57;;;5.50;;
73733;SDS011;62039;50.000;9.064;2023-03-01T02:15:45;6.80;;;5.50;;
73733;SDS011;62039;50.000;9.064;2023-03-01T02:18:12;7.20;;;5.93;;
73733;SDS011;62039;50.000;9.064;2023-03-01T02:20:48;6.37;;;5.43;;
73733;SDS011;62039;50.000;9.064;2023-03-01T02:23:24;6.10;;;5.20;;
73733;SDS011;62039;50.000;9.064;2023-03-01T02:25:52;5.77;;;4.73;;
73733;SDS011;62039;50.000;9.064;2023-03-01T02:28:30;5.17;;;4.67;;
73733;SDS011;62039;50.000;9.064;2023-03-01T02:30:57;5.63;;;4.57;;
73733;SDS011;62039;50.000;9.064;2023-03-01T02:33:24;6.20;;;4.93;;
73733;SDS011;62039;50.000;9.064;2023-03-01T02:35:52;5.27;;;4.53;;
73733;SDS011;62039;50.000;9.064;2023-03-01T02:38:20;5.53;;;4.93;;
73733;SDS011;62039;50.000;9.064;2023-03-01T02:40:49;5.67;;;4.93;;
73733;SDS011;62039;50.000;9.064;2023-03-01T02:43:17;8.17;;;5.60;;
73733;SDS011;62039;50.000;9.064;2023-03-01T02:45:49;6.70;;;5.67;;
73733;SDS011;62039;50.000;9.064;2023-03-01T02:48:16;7.33;;;6.03;;
73733;SDS011;62039;50.000;9.064;2023-03-01T02:50:45;7.13;;;5.27;;
73733;SDS011;62039;50.000;9.064;2023-03-01T02:53:21;6.27;;;5.30;;
73733;SDS011;62039;50.000;9.064;2023-03-01T02:55:51;7.30;;;5.60;;
73733;SDS011;62039;50.000;9.064;2023-03-01T02:58:18;5.93;;;5.33;;
73733;SDS011;62039;50.000;9.064;2023-03-01T03:00:45;6.97;;;5.43;;
73733;SDS011;62039;50.000;9.064;2023-03-01T03:03:14;8.50;;;5.80;;
73733;SDS011;62039;50.000;9.064;2023-03-01T03:05:43;6.83;;;5.93;;
73733;SDS011;62039;50.000;9.064;2023-03-01T03:08:09;7.80;;;6.13;;
73733;SDS011;62039;50.000;9.064;2023-03-01T03:10:36;6.03;;;5.30;;
73733;SDS011;62039;50.000;9.064;2023-03-01T03:13:05;6.70;;;5.83;;
73733;SDS011;62039;50.000;9.064;2023-03-01T03:15:33;6.73;;;5.80;;
73733;SDS011;62039;50.000;9.064;2023-03-01T03:18:00;6.43;;;5.37;;
73733;SDS011;62039;50.000;9.064;2023-03-01T03:20:30;7.63;;;5.53;;
73733;SDS011;62039;50.000;9.064;2023-03-01T03:22:57;6.53;;;5.40;;
73733;SDS011;62039;50.000;9.064;2023-03-01T03:25:24;7.03;;;5.47;;
73733;SDS011;62039;50.000;9.064;2023-03-01T03:27:52;8.37;;;5.40;;
73733;SDS011;62039;50.000;9.064;2023-03-01T03:30:19;6.40;;;5.57;;
73733;SDS011;62039;50.000;9.064;2023-03-01T03:32:46;7.67;;;5.63;;
73733;SDS011;62039;50.000;9.064;2023-03-01T03:35:13;6.97;;;6.03;;
73733;SDS011;62039;50.000;9.064;2023-03-01T03:37:41;8.23;;;6.10;;
73733;SDS011;62039;50.000;9.064;2023-03-01T03:40:08;6.27;;;5.60;;
73733;SDS011;62039;50.000;9.064;2023-03-01T03:42:35;7.40;;;6.00;;
73733;SDS011;62039;50.000;9.064;2023-03-01T03:45:02;7.73;;;6.03;;
73733;SDS011;62039;50.000;9.064;2023-03-01T03:47:29;7.47;;;5.93;;
73733;SDS011;62039;50.000;9.064;2023-03-01T03:49:56;7.30;;;5.90;;
73733;SDS011;62039;50.000;9.064;2023-03-01T03:52:22;7.53;;;6.50;;
73733;SDS011;62039;50.000;9.064;2023-03-01T03:54:50;6.93;;;6.23;;
73733;SDS011;62039;50.000;9.064;2023-03-01T03:57:16;7.20;;;5.80;;
73733;SDS011;62039;50.000;9.064;2023-03-01T03:59:43;7.83;;;6.50;;
73733;SDS011;62039;50.000;9.064;2023-03-01T04:02:09;7.60;;;6.47;;
73733;SDS011;62039;50.000;9.064;2023-03-01T04:04:36;7.37;;;6.20;;
73733;SDS011;62039;50.000;9.064;2023-03-01T04:07:02;7.47;;;6.40;;
73733;SDS011;62039;50.000;9.064;2023-03-01T04:09:29;7.40;;;6.33;;
73733;SDS011;62039;50.000;9.064;2023-03-01T04:11:57;7.73;;;6.23;;
73733;SDS011;62039;50.000;9.064;2023-03-01T04:14:23;7.00;;;6.17;;
73733;SDS011;62039;50.000;9.064;2023-03-01T04:16:50;8.53;;;6.70;;
73733;SDS011;62039;50.000;9.064;2023-03-01T04:19:16;8.53;;;6.60;;
73733;SDS011;62039;50.000;9.064;2023-03-01T04:21:43;9.77;;;6.17;;
73733;SDS011;62039;50.000;9.064;2023-03-01T04:24:09;8.17;;;6.73;;
73733;SDS011;62039;50.000;9.064;2023-03-01T04:26:36;8.63;;;6.40;;
73733;SDS011;62039;50.000;9.064;2023-03-01T04:29:04;8.53;;;6.97;;
73733;SDS011;62039;50.000;9.064;2023-03-01T04:31:30;8.87;;;7.10;;
73733;SDS011;62039;50.000;9.064;2023-03-01T04:33:57;6.97;;;6.10;;
73733;SDS011;62039;50.000;9.064;2023-03-01T04:36:24;7.90;;;6.53;;
73733;SDS011;62039;50.000;9.064;2023-03-01T04:38:53;9.00;;;6.97;;
73733;SDS011;62039;50.000;9.064;2023-03-01T04:41:21;8.70;;;6.63;;
73733;SDS011;62039;50.000;9.064;2023-03-01T04:43:49;7.63;;;6.83;;
73733;SDS011;62039;50.000;9.064;2023-03-01T04:46:18;8.40;;;6.63;;
73733;SDS011;62039;50.000;9.064;2023-03-01T04:48:46;8.47;;;7.23;;
73733;SDS011;62039;50.000;9.064;2023-03-01T04:51:13;8.27;;;6.97;;
73733;SDS011;62039;50.000;9.064;2023-03-01T04:53:40;9.93;;;8.00;;
73733;SDS011;62039;50.000;9.064;2023-03-01T04:56:08;9.67;;;7.20;;
73733;SDS011;62039;50.000;9.064;2023-03-01T04:58:34;8.87;;;7.23;;
73733;SDS011;62039;50.000;9.064;2023-03-01T05:01:01;8.63;;;7.33;;
73733;SDS011;62039;50.000;9.064;2023-03-01T05:03:36;8.40;;;6.83;;
73733;SDS011;62039;50.000;9.064;2023-03-01T05:06:02;8.77;;;7.13;;
73733;SDS011;62039;50.000;9.064;2023-03-01T05:08:29;7.80;;;6.97;;
73733;SDS011;62039;50.000;9.064;2023-03-01T05:10:56;8.27;;;7.23;;
73733;SDS011;62039;50.000;9.064;2023-03-01T05:13:22;9.17;;;6.70;;
73733;SDS011;62039;50.000;9.064;2023-03-01T05:15:49;10.70;;;7.07;;
73733;SDS011;62039;50.000;9.064;2023-03-01T05:18:20;9.63;;;7.70;;
73733;SDS011;62039;50.000;9.064;2023-03-01T05:20:48;9.00;;;7.20;;
73733;SDS011;62039;50.000;9.064;2023-03-01T05:23:15;7.97;;;6.67;;
73733;SDS011;62039;50.000;9.064;2023-03-01T05:25:41;8.03;;;6.80;;
73733;SDS011;62039;50.000;9.064;2023-03-01T05:28:09;7.67;;;6.30;;
73733;SDS011;62039;50.000;9.064;2023-03-01T05:30:37;7.93;;;6.73;;
73733;SDS011;62039;50.000;9.064;2023-03-01T05:33:04;8.50;;;6.83;;
73733;SDS011;62039;50.000;9.064;2023-03-01T05:35:32;9.83;;;7.33;;
73733;SDS011;62039;50.000;9.064;2023-03-01T05:38:00;8.00;;;6.73;;
73733;SDS011;62039;50.000;9.064;2023-03-01T05:40:27;8.60;;;7.23;;
73733;SDS011;62039;50.000;9.064;2023-03-01T05:42:54;9.90;;;8.00;;
73733;SDS011;62039;50.000;9.064;2023-03-01T05:45:23;9.33;;;7.20;;
73733;SDS011;62039;50.000;9.064;2023-03-01T05:47:50;8.63;;;7.50;;
73733;SDS011;62039;50.000;9.064;2023-03-01T05:50:18;10.37;;;8.60;;
73733;SDS011;62039;50.000;9.064;2023-03-01T05:52:47;11.17;;;8.00;;
73733;SDS011;62039;50.000;9.064;2023-03-01T05:55:16;11.60;;;7.93;;
73733;SDS011;62039;50.000;9.064;2023-03-01T05:57:44;12.00;;;8.87;;
73733;SDS011;62039;50.000;9.064;2023-03-01T06:00:11;12.37;;;8.57;;
73733;SDS011;62039;50.000;9.064;2023-03-01T06:02:39;12.03;;;8.60;;
73733;SDS011;62039;50.000;9.064;2023-03-01T06:05:06;10.30;;;7.97;;
73733;SDS011;62039;50.000;9.064;2023-03-01T06:07:34;10.27;;;8.53;;
73733;SDS011;62039;50.000;9.064;2023-03-01T06:10:00;9.53;;;8.30;;
73733;SDS011;62039;50.000;9.064;2023-03-01T06:12:31;10.37;;;8.33;;
73733;SDS011;62039;50.000;9.064;2023-03-01T06:14:57;10.90;;;7.97;;
73733;SDS011;62039;50.000;9.064;2023-03-01T06:17:24;9.07;;;8.00;;
73733;SDS011;62039;50.000;9.064;2023-03-01T06:19:50;11.00;;;8.30;;
73733;SDS011;62039;50.000;9.064;2023-03-01T06:22:17;8.47;;;7.07;;
73733;SDS011;62039;50.000;9.064;2023-03-01T06:24:43;8.53;;;7.20;;
73733;SDS011;62039;50.000;9.064;2023-03-01T06:27:10;9.50;;;7.27;;
73733;SDS011;62039;50.000;9.064;2023-03-01T06:29:38;8.90;;;7.10;;
73733;SDS011;62039;50.000;9.064;2023-03-01T06:32:07;13.67;;;7.97;;
73733;SDS011;62039;50.000;9.064;2023-03-01T06:34:33;10.13;;;7.63;;
73733;SDS011;62039;50.000;9.064;2023-03-01T06:37:00;12.87;;;8.93;;
73733;SDS011;62039;50.000;9.064;2023-03-01T06:39:27;10.23;;;8.23;;
73733;SDS011;62039;50.000;9.064;2023-03-01T06:41:54;10.07;;;7.23;;
73733;SDS011;62039;50.000;9.064;2023-03-01T06:44:20;9.63;;;6.93;;
73733;SDS011;62039;50.000;9.064;2023-03-01T06:46:48;9.43;;;7.40;;
73733;SDS011;62039;50.000;9.064;2023-03-01T06:49:15;9.90;;;8.23;;
73733;SDS011;62039;50.000;9.064;2023-03-01T06:51:42;9.37;;;7.57;;
73733;SDS011;62039;50.000;9.064;2023-03-01T06:54:08;9.23;;;7.80;;
73733;SDS011;62039;50.000;9.064;2023-03-01T06:56:35;9.97;;;7.60;;
73733;SDS011;62039;50.000;9.064;2023-03-01T06:59:02;10.33;;;7.40;;
73733;SDS011;62039;50.000;9.064;2023-03-01T07:01:28;10.03;;;7.57;;
73733;SDS011;62039;50.000;9.064;2023-03-01T07:03:57;9.40;;;7.60;;
73733;SDS011;62039;50.000;9.064;2023-03-01T07:06:23;10.23;;;7.60;;
73733;SDS011;62039;50.000;9.064;2023-03-01T07:08:50;9.93;;;8.17;;
73733;SDS011;62039;50.000;9.064;2023-03-01T07:11:16;9.13;;;7.97;;
73733;SDS011;62039;50.000;9.064;2023-03-01T07:13:43;10.77;;;8.43;;
73733;SDS011;62039;50.000;9.064;2023-03-01T07:16:09;9.70;;;8.10;;
73733;SDS011;62039;50.000;9.064;2023-03-01T07:18:36;10.60;;;8.77;;
73733;SDS011;62039;50.000;9.064;2023-03-01T07:21:08;10.33;;;8.33;;
73733;SDS011;62039;50.000;9.064;2023-03-01T07:23:35;9.33;;;7.83;;
73733;SDS011;62039;50.000;9.064;2023-03-01T07:26:01;9.27;;;7.83;;
73733;SDS011;62039;50.000;9.064;2023-03-01T07:28:28;11.57;;;8.43;;
73733;SDS011;62039;50.000;9.064;2023-03-01T07:30:55;10.57;;;8.67;;
73733;SDS011;62039;50.000;9.064;2023-03-01T07:33:26;10.73;;;7.87;;
73733;SDS011;62039;50.000;9.064;2023-03-01T07:35:55;9.40;;;7.33;;
73733;SDS011;62039;50.000;9.064;2023-03-01T07:38:24;7.60;;;6.80;;
73733;SDS011;62039;50.000;9.064;2023-03-01T07:40:51;8.73;;;6.87;;
73733;SDS011;62039;50.000;9.064;2023-03-01T07:43:18;7.77;;;6.33;;
73733;SDS011;62039;50.000;9.064;2023-03-01T07:45:44;8.57;;;7.13;;
73733;SDS011;62039;50.000;9.064;2023-03-01T07:48:11;12.10;;;8.53;;
73733;SDS011;62039;50.000;9.064;2023-03-01T07:50:37;10.87;;;9.63;;
73733;SDS011;62039;50.000;9.064;2023-03-01T07:53:04;9.87;;;8.00;;
73733;SDS011;62039;50.000;9.064;2023-03-01T07:55:32;10.30;;;8.47;;
73733;SDS011;62039;50.000;9.064;2023-03-01T07:57:58;8.87;;;6.93;;
73733;SDS011;62039;50.000;9.064;2023-03-01T08:00:25;8.27;;;6.57;;
73733;SDS011;62039;50.000;9.064;2023-03-01T08:02:51;10.17;;;8.93;;
73733;SDS011;62039;50.000;9.064;2023-03-01T08:05:18;9.30;;;7.37;;
73733;SDS011;62039;50.000;9.064;2023-03-01T08:07:44;9.60;;;7.27;;
73733;SDS011;62039;50.000;9.064;2023-03-01T08:10:11;7.47;;;6.53;;
73733;SDS011;62039;50.000;9.064;2023-03-01T08:12:39;9.90;;;7.10;;
73733;SDS011;62039;50.000;9.064;2023-03-01T08:15:06;8.30;;;6.70;;
73733;SDS011;62039;50.000;9.064;2023-03-01T08:17:33;7.87;;;7.07;;
73733;SDS011;62039;50.000;9.064;2023-03-01T08:20:00;10.43;;;7.53;;
73733;SDS011;62039;50.000;9.064;2023-03-01T08:22:26;7.63;;;6.83;;
73733;SDS011;62039;50.000;9.064;2023-03-01T08:24:53;7.63;;;6.83;;
73733;SDS011;62039;50.000;9.064;2023-03-01T08:27:19;8.43;;;7.20;;
73733;SDS011;62039;50.000;9.064;2023-03-01T08:29:47;7.27;;;6.30;;
73733;SDS011;62039;50.000;9.064;2023-03-01T08:32:14;7.77;;;6.87;;
73733;SDS011;62039;50.000;9.064;2023-03-01T08:34:40;7.60;;;6.73;;
73733;SDS011;62039;50.000;9.064;2023-03-01T08:37:07;7.63;;;6.83;;
73733;SDS011;62039;50.000;9.064;2023-03-01T08:39:34;8.57;;;6.40;;
73733;SDS011;62039;50.000;9.064;2023-03-01T08:42:00;7.70;;;6.57;;
73733;SDS011;62039;50.000;9.064;2023-03-01T08:44:27;7.70;;;6.90;;
73733;SDS011;62039;50.000;9.064;2023-03-01T08:46:55;8.07;;;6.93;;
73733;SDS011;62039;50.000;9.064;2023-03-01T08:49:21;7.53;;;6.30;;
73733;SDS011;62039;50.000;9.064;2023-03-01T08:51:48;7.80;;;6.70;;
73733;SDS011;62039;50.000;9.064;2023-03-01T08:54:15;8.00;;;6.97;;
73733;SDS011;62039;50.000;9.064;2023-03-01T08:56:44;9.13;;;8.13;;
73733;SDS011;62039;50.000;9.064;2023-03-01T08:59:11;7.27;;;6.53;;
73733;SDS011;62039;50.000;9.064;2023-03-01T09:01:38;6.77;;;6.07;;
73733;SDS011;62039;50.000;9.064;2023-03-01T09:04:06;7.53;;;6.73;;
73733;SDS011;62039;50.000;9.064;2023-03-01T09:06:33;9.03;;;7.47;;
73733;SDS011;62039;50.000;9.064;2023-03-01T09:09:00;13.10;;;9.77;;
73733;SDS011;62039;50.000;9.064;2023-03-01T09:11:28;11.37;;;8.30;;
73733;SDS011;62039;50.000;9.064;2023-03-01T09:13:55;9.07;;;8.10;;
73733;SDS011;62039;50.000;9.064;2023-03-01T09:16:22;10.90;;;8.90;;
73733;SDS011;62039;50.000;9.064;2023-03-01T09:18:49;11.03;;;9.03;;
73733;SDS011;62039;50.000;9.064;2023-03-01T09:21:19;12.37;;;10.33;;
73733;SDS011;62039;50.000;9.064;2023-03-01T09:24:04;11.13;;;9.57;;
73733;SDS011;62039;50.000;9.064;2023-03-01T09:26:31;11.83;;;9.23;;
73733;SDS011;62039;50.000;9.064;2023-03-01T09:28:59;9.73;;;8.27;;
73733;SDS011;62039;50.000;9.064;2023-03-01T09:31:25;8.97;;;7.93;;
73733;SDS011;62039;50.000;9.064;2023-03-01T09:33:52;9.83;;;7.97;;
73733;SDS011;62039;50.000;9.064;2023-03-01T09:36:22;9.83;;;8.13;;
73733;SDS011;62039;50.000;9.064;2023-03-01T09:38:50;13.97;;;11.23;;
73733;SDS011;62039;50.000;9.064;2023-03-01T09:41:21;14.93;;;12.37;;
73733;SDS011;62039;50.000;9.064;2023-03-01T09:43:59;10.37;;;9.23;;
73733;SDS011;62039;50.000;9.064;2023-03-01T09:46:37;9.80;;;8.53;;
73733;SDS011;62039;50.000;9.064;2023-03-01T09:49:09;10.53;;;9.17;;
73733;SDS011;62039;50.000;9.064;2023-03-01T09:51:42;10.33;;;8.83;;
73733;SDS011;62039;50.000;9.064;2023-03-01T09:54:20;8.53;;;7.37;;
73733;SDS011;62039;50.000;9.064;2023-03-01T09:56:57;9.87;;;7.43;;
73733;SDS011;62039;50.000;9.064;2023-03-01T09:59:31;8.80;;;7.20;;
73733;SDS011;62039;50.000;9.064;2023-03-01T10:02:11;7.23;;;6.10;;
73733;SDS011;62039;50.000;9.064;2023-03-01T10:04:50;7.37;;;6.57;;
73733;SDS011;62039;50.000;9.064;2023-03-01T10:07:26;9.53;;;8.00;;
73733;SDS011;62039;50.000;9.064;2023-03-01T10:09:58;8.90;;;7.63;;
73733;SDS011;62039;50.000;9.064;2023-03-01T10:12:27;7.47;;;6.70;;
73733;SDS011;62039;50.000;9.064;2023-03-01T10:15:01;7.37;;;6.57;;
73733;SDS011;62039;50.000;9.064;2023-03-01T10:17:33;8.50;;;7.60;;
73733;SDS011;62039;50.000;9.064;2023-03-01T10:20:15;7.93;;;7.13;;
73733;SDS011;62039;50.000;9.064;2023-03-01T10:22:45;8.23;;;6.87;;
73733;SDS011;62039;50.000;9.064;2023-03-01T10:25:12;8.37;;;7.50;;
73733;SDS011;62039;50.000;9.064;2023-03-01T10:27:42;8.40;;;7.53;;
73733;SDS011;62039;50.000;9.064;2023-03-01T10:30:16;8.83;;;7.33;;
73733;SDS011;62039;50.000;9.064;2023-03-01T10:32:46;7.60;;;6.80;;
73733;SDS011;62039;50.000;9.064;2023-03-01T10:35:16;7.43;;;6.73;;
73733;SDS011;62039;50.000;9.064;2023-03-01T10:37:59;7.83;;;6.50;;
73733;SDS011;62039;50.000;9.064;2023-03-01T10:40:30;6.90;;;6.20;;
73733;SDS011;62039;50.000;9.064;2023-03-01T10:42:57;7.47;;;6.20;;
73733;SDS011;62039;50.000;9.064;2023-03-01T10:45:34;6.33;;;5.73;;
73733;SDS011;62039;50.000;9.064;2023-03-01T10:48:03;6.83;;;5.90;;
73733;SDS011;62039;50.000;9.064;2023-03-01T10:50:30;6.97;;;5.47;;
73733;SDS011;62039;50.000;9.064;2023-03-01T10:52:59;7.43;;;5.80;;
73733;SDS011;62039;50.000;9.064;2023-03-01T10:55:29;7.83;;;6.13;;
73733;SDS011;62039;50.000;9.064;2023-03-01T10:58:07;7.80;;;6.80;;
73733;SDS011;62039;50.000;9.064;2023-03-01T11:00:45;7.07;;;6.30;;
73733;SDS011;62039;50.000;9.064;2023-03-01T11:03:13;6.80;;;5.83;;
73733;SDS011;62039;50.000;9.064;2023-03-01T11:05:50;6.17;;;5.57;;
73733;SDS011;62039;50.000;9.064;2023-03-01T11:08:30;5.63;;;5.13;;
73733;SDS011;62039;50.000;9.064;2023-03-01T11:11:04;5.47;;;4.97;;
73733;SDS011;62039;50.000;9.064;2023-03-01T11:13:33;6.37;;;5.77;;
73733;SDS011;62039;50.000;9.064;2023-03-01T11:16:03;6.53;;;5.83;;
73733;SDS011;62039;50.000;9.064;2023-03-01T11:18:33;6.67;;;5.83;;
73733;SDS011;62039;50.000;9.064;2023-03-01T11:21:13;6.83;;;5.63;;
73733;SDS011;62039;50.000;9.064;2023-03-01T11:23:43;5.43;;;4.90;;
73733;SDS011;62039;50.000;9.064;2023-03-01T11:26:11;6.27;;;5.53;;
73733;SDS011;62039;50.000;9.064;2023-03-01T11:28:40;7.33;;;5.60;;
73733;SDS011;62039;50.000;9.064;2023-03-01T11:31:09;6.70;;;5.63;;
73733;SDS011;62039;50.000;9.064;2023-03-01T11:33:40;6.27;;;5.53;;
73733;SDS011;62039;50.000;9.064;2023-03-01T11:36:13;5.80;;;5.20;;
73733;SDS011;62039;50.000;9.064;2023-03-01T11:38:46;6.00;;;5.40;;
73733;SDS011;62039;50.000;9.064;2023-03-01T11:41:14;5.20;;;4.63;;
73733;SDS011;62039;50.000;9.064;2023-03-01T11:43:46;6.20;;;5.60;;
73733;SDS011;62039;50.000;9.064;2023-03-01T11:46:31;6.33;;;5.27;;
73733;SDS011;62039;50.000;9.064;2023-03-01T11:49:16;6.37;;;5.43;;
73733;SDS011;62039;50.000;9.064;2023-03-01T11:52:03;5.43;;;4.93;;
73733;SDS011;62039;50.000;9.064;2023-03-01T11:54:43;4.87;;;4.27;;
73733;SDS011;62039;50.000;9.064;2023-03-01T11:57:20;5.77;;;5.20;;
73733;SDS011;62039;50.000;9.064;2023-03-01T12:00:25;5.27;;;4.77;;
73733;SDS011;62039;50.000;9.064;2023-03-01T12:03:16;4.53;;;4.13;;
73733;SDS011;62039;50.000;9.064;2023-03-01T12:05:55;4.67;;;4.17;;
73733;SDS011;62039;50.000;9.064;2023-03-01T12:08:35;5.20;;;4.70;;
73733;SDS011;62039;50.000;9.064;2023-03-01T12:11:11;5.67;;;4.57;;
73733;SDS011;62039;50.000;9.064;2023-03-01T12:17:00;5.07;;;4.23;;
73733;SDS011;62039;50.000;9.064;2023-03-01T12:19:44;4.80;;;4.30;;
73733;SDS011;62039;50.000;9.064;2023-03-01T12:22:35;5.83;;;4.50;;
73733;SDS011;62039;50.000;9.064;2023-03-01T12:25:22;4.77;;;4.30;;
73733;SDS011;62039;50.000;9.064;2023-03-01T12:28:18;5.30;;;4.80;;
73733;SDS011;62039;50.000;9.064;2023-03-01T12:34:09;5.53;;;5.03;;
73733;SDS011;62039;50.000;9.064;2023-03-01T12:36:56;5.33;;;4.40;;
73733;SDS011;62039;50.000;9.064;2023-03-01T12:39:38;4.57;;;4.00;;
73733;SDS011;62039;50.000;9.064;2023-03-01T12:42:19;4.30;;;3.90;;
73733;SDS011;62039;50.000;9.064;2023-03-01T12:45:05;4.70;;;4.20;;
73733;SDS011;62039;50.000;9.064;2023-03-01T12:47:53;4.60;;;4.20;;
73733;SDS011;62039;50.000;9.064;2023-03-01T12:50:32;4.57;;;4.03;;
73733;SDS011;62039;50.000;9.064;2023-03-01T12:53:05;4.60;;;4.20;;
73733;SDS011;62039;50.000;9.064;2023-03-01T12:55:34;4.43;;;3.87;;
73733;SDS011;62039;50.000;9.064;2023-03-01T12:58:05;4.33;;;3.93;;
73733;SDS011;62039;50.000;9.064;2023-03-01T13:00:40;4.73;;;4.33;;
73733;SDS011;62039;50.000;9.064;2023-03-01T13:03:19;4.60;;;4.20;;
73733;SDS011;62039;50.000;9.064;2023-03-01T13:06:00;4.20;;;3.80;;
73733;SDS011;62039;50.000;9.064;2023-03-01T13:08:36;5.60;;;4.33;;
73733;SDS011;62039;50.000;9.064;2023-03-01T13:11:11;4.30;;;3.90;;
73733;SDS011;62039;50.000;9.064;2023-03-01T13:13:43;3.93;;;3.53;;
73733;SDS011;62039;50.000;9.064;2023-03-01T13:16:21;4.80;;;4.30;;
73733;SDS011;62039;50.000;9.064;2023-03-01T13:19:06;4.73;;;4.23;;
73733;SDS011;62039;50.000;9.064;2023-03-01T13:21:38;4.60;;;4.13;;
73733;SDS011;62039;50.000;9.064;2023-03-01T13:24:22;4.53;;;4.10;;
73733;SDS011;62039;50.000;9.064;2023-03-01T13:27:09;4.20;;;3.80;;
73733;SDS011;62039;50.000;9.064;2023-03-01T13:29:48;4.53;;;4.13;;
73733;SDS011;62039;50.000;9.064;2023-03-01T13:32:20;5.77;;;3.97;;
73733;SDS011;62039;50.000;9.064;2023-03-01T13:35:00;4.83;;;4.33;;
73733;SDS011;62039;50.000;9.064;2023-03-01T13:37:31;4.93;;;4.43;;
73733;SDS011;62039;50.000;9.064;2023-03-01T13:40:02;4.77;;;4.37;;
73733;SDS011;62039;50.000;9.064;2023-03-01T13:42:44;5.10;;;4.40;;
73733;SDS011;62039;50.000;9.064;2023-03-01T13:45:32;5.53;;;5.00;;
73733;SDS011;62039;50.000;9.064;2023-03-01T13:48:09;5.83;;;5.23;;
73733;SDS011;62039;50.000;9.064;2023-03-01T13:50:43;6.00;;;5.40;;
73733;SDS011;62039;50.000;9.064;2023-03-01T13:53:14;6.10;;;5.33;;
73733;SDS011;62039;50.000;9.064;2023-03-01T13:55:44;6.20;;;5.47;;
73733;SDS011;62039;50.000;9.064;2023-03-01T13:58:19;6.57;;;5.37;;
73733;SDS011;62039;50.000;9.064;2023-03-01T14:00:54;6.17;;;5.57;;
73733;SDS011;62039;50.000;9.064;2023-03-01T14:03:23;5.83;;;5.33;;
73733;SDS011;62039;50.000;9.064;2023-03-01T14:05:57;6.03;;;5.43;;
73733;SDS011;62039;50.000;9.064;2023-03-01T14:08:41;5.83;;;5.27;;
73733;SDS011;62039;50.000;9.064;2023-03-01T14:14:29;8.00;;;6.00;;
73733;SDS011;62039;50.000;9.064;2023-03-01T14:17:07;6.23;;;5.63;;
73733;SDS011;62039;50.000;9.064;2023-03-01T14:19:45;6.07;;;5.47;;
73733;SDS011;62039;50.000;9.064;2023-03-01T14:22:16;5.40;;;4.90;;
73733;SDS011;62039;50.000;9.064;2023-03-01T14:24:47;5.53;;;5.03;;
73733;SDS011;62039;50.000;9.064;2023-03-01T14:27:15;5.97;;;5.47;;
73733;SDS011;62039;50.000;9.064;2023-03-01T14:29:42;6.00;;;5.40;;
73733;SDS011;62039;50.000;9.064;2023-03-01T14:32:10;6.47;;;5.50;;
73733;SDS011;62039;50.000;9.064;2023-03-01T14:34:45;6.40;;;5.80;;
73733;SDS011;62039;50.000;9.064;2023-03-01T14:37:17;5.70;;;5.10;;
73733;SDS011;62039;50.000;9.064;2023-03-01T14:39:46;6.00;;;5.40;;
73733;SDS011;62039;50.000;9.064;2023-03-01T14:42:13;5.73;;;5.23;;
73733;SDS011;62039;50.000;9.064;2023-03-01T14:44:41;6.37;;;5.50;;
73733;SDS011;62039;50.000;9.064;2023-03-01T14:47:10;6.13;;;5.23;;
73733;SDS011;62039;50.000;9.064;2023-03-01T14:49:40;6.07;;;5.47;;
73733;SDS011;62039;50.000;9.064;2023-03-01T14:52:16;6.10;;;5.43;;
73733;SDS011;62039;50.000;9.064;2023-03-01T14:54:46;7.07;;;6.37;;
73733;SDS011;62039;50.000;9.064;2023-03-01T14:57:16;7.27;;;6.13;;
73733;SDS011;62039;50.000;9.064;2023-03-01T14:59:44;6.50;;;5.30;;
73733;SDS011;62039;50.000;9.064;2023-03-01T15:02:12;5.83;;;5.20;;
73733;SDS011;62039;50.000;9.064;2023-03-01T15:04:41;5.60;;;5.03;;
73733;SDS011;62039;50.000;9.064;2023-03-01T15:07:13;7.40;;;5.90;;
73733;SDS011;62039;50.000;9.064;2023-03-01T15:09:40;7.77;;;5.50;;
73733;SDS011;62039;50.000;9.064;2023-03-01T15:15:06;5.63;;;5.03;;